Bayside Park, Mississippi
Current Conditions -  °F | °C
As of 9:53 PM on Saturday 22 Nov 2014 (Local Time) from KASD Reporting Station
Overcast Overcast  
Wind Chill: 64°   Ceiling: 600
Heat Index: 64°   Visibility: 10mi
Dew Point: 61°   Wind: 8mph
Humidity: 90%   Direction: 100°E
Pressure: 29.94"   Gusts: NA
Location:  30.3134°N, 89.5231°W
Report Text: KASD 230353Z AUTO 10007KT 10SM OVC006 18/16 A2994 RMK AO2 SLP138 T01780161
Loading
Personal Weather Stations






























Interactive Weather Map New forecast layout! Learn more

10-Day Weather Forecast

Advertisements
Track Severe Weather on mobile